createdAt,value
2022-12-11T00:00:27.516Z,4.57
2022-12-11T00:02:55.300Z,4.30
2022-12-11T00:05:22.587Z,4.20
2022-12-11T00:07:49.804Z,4.23
2022-12-11T00:10:17.456Z,4.47
2022-12-11T00:12:44.868Z,3.33
2022-12-11T00:15:12.485Z,3.60
2022-12-11T00:17:40.502Z,5.50
2022-12-11T00:20:08.244Z,3.90
2022-12-11T00:22:35.529Z,3.60
2022-12-11T00:25:03.580Z,4.63
2022-12-11T00:27:30.803Z,3.33
2022-12-11T00:29:59.674Z,3.85
2022-12-11T00:32:28.550Z,3.57
2022-12-11T00:34:56.117Z,3.47
2022-12-11T00:37:23.591Z,5.60
2022-12-11T00:39:51.680Z,5.70
2022-12-11T00:42:18.985Z,6.00
2022-12-11T00:44:46.246Z,8.27
2022-12-11T00:47:13.872Z,6.80
2022-12-11T00:49:43.932Z,6.13
2022-12-11T00:52:17.957Z,5.87
2022-12-11T00:54:45.564Z,5.13
2022-12-11T00:57:12.827Z,5.70
2022-12-11T00:59:40.582Z,6.03
2022-12-11T01:02:08.084Z,6.17
2022-12-11T01:04:38.420Z,7.90
2022-12-11T01:07:06.126Z,12.17
2022-12-11T01:09:52.567Z,13.60
2022-12-11T01:12:20.334Z,8.80
2022-12-11T01:14:47.692Z,11.07
2022-12-11T01:17:14.993Z,16.70
2022-12-11T01:19:42.664Z,10.80
2022-12-11T01:22:10.065Z,8.37
2022-12-11T01:24:38.252Z,9.00
2022-12-11T01:27:05.864Z,5.57
2022-12-11T01:29:33.163Z,6.50
2022-12-11T01:32:00.406Z,5.87
2022-12-11T01:34:32.102Z,6.13
2022-12-11T01:36:59.721Z,9.20
2022-12-11T01:39:27.027Z,7.63
2022-12-11T01:41:58.612Z,7.10
2022-12-11T01:44:25.762Z,7.87
2022-12-11T01:46:53.432Z,6.47
2022-12-11T01:49:25.243Z,11.50
2022-12-11T01:52:00.808Z,8.60
2022-12-11T01:54:29.357Z,8.17
2022-12-11T01:57:00.611Z,6.20
2022-12-11T01:59:31.738Z,6.10
2022-12-11T02:02:26.566Z,5.07
2022-12-11T02:04:54.357Z,2.37
2022-12-11T02:07:22.037Z,1.30
2022-12-11T02:09:50.229Z,1.00
2022-12-11T02:12:24.017Z,1.00
2022-12-11T02:15:16.546Z,0.87
2022-12-11T02:17:47.099Z,0.80
2022-12-11T02:20:53.287Z,0.50
2022-12-11T02:23:27.124Z,0.40
2022-12-11T02:26:13.029Z,0.20
2022-12-11T02:29:14.786Z,0.40
2022-12-11T02:31:47.479Z,0.60
2022-12-11T02:34:32.769Z,0.50
2022-12-11T02:37:05.990Z,0.33
2022-12-11T02:39:39.035Z,0.80
2022-12-11T02:42:08.248Z,0.60
2022-12-11T02:44:37.194Z,0.43
2022-12-11T02:47:07.860Z,0.40
2022-12-11T02:49:36.140Z,0.30
2022-12-11T02:52:06.442Z,0.47
2022-12-11T02:54:37.966Z,0.63
2022-12-11T02:57:14.702Z,0.50
2022-12-11T02:59:44.525Z,0.57
2022-12-11T03:02:15.692Z,0.50
2022-12-11T03:04:44.842Z,0.40
2022-12-11T03:07:17.312Z,0.50
2022-12-11T03:09:47.503Z,0.40
2022-12-11T03:12:20.948Z,1.53
2022-12-11T03:14:49.877Z,1.47
2022-12-11T03:19:49.835Z,0.60
2022-12-11T03:22:22.304Z,1.10
2022-12-11T03:24:55.319Z,0.50
2022-12-11T03:27:47.565Z,0.70
2022-12-11T03:30:18.687Z,0.80
2022-12-11T03:32:54.616Z,1.00
2022-12-11T03:35:30.620Z,0.90
2022-12-11T03:38:02.596Z,1.47
2022-12-11T03:40:33.367Z,1.20
2022-12-11T03:43:01.096Z,0.80
2022-12-11T03:45:30.458Z,1.10
2022-12-11T03:48:01.743Z,1.13
2022-12-11T03:50:32.293Z,1.10
2022-12-11T03:53:02.022Z,1.27
2022-12-11T03:55:30.916Z,0.90
2022-12-11T03:57:58.310Z,0.95
2022-12-11T04:00:25.935Z,1.07
2022-12-11T04:03:13.877Z,1.10
2022-12-11T04:05:50.277Z,0.90
2022-12-11T04:08:21.085Z,1.10
2022-12-11T04:10:49.204Z,0.70
2022-12-11T04:13:16.504Z,1.13
2022-12-11T04:15:44.144Z,0.90
2022-12-11T04:18:29.963Z,0.90
2022-12-11T04:21:16.175Z,1.63
2022-12-11T04:24:01.792Z,1.50
2022-12-11T04:26:29.374Z,1.90
2022-12-11T04:28:56.718Z,1.27
2022-12-11T04:31:24.490Z,2.03
2022-12-11T04:33:52.475Z,1.33
2022-12-11T04:36:19.823Z,1.67
2022-12-11T04:38:48.098Z,2.50
2022-12-11T04:41:17.691Z,2.77
2022-12-11T04:43:45.568Z,1.20
2022-12-11T04:46:20.130Z,1.70
2022-12-11T04:48:55.472Z,2.13
2022-12-11T04:51:24.940Z,2.87
2022-12-11T04:53:54.458Z,2.00
2022-12-11T04:56:21.930Z,2.57
2022-12-11T04:58:49.971Z,13.10
2022-12-11T05:01:20.531Z,9.05
2022-12-11T05:03:48.468Z,8.97
2022-12-11T05:06:15.985Z,5.80
2022-12-11T05:08:45.345Z,2.07
2022-12-11T05:11:16.516Z,24.63
2022-12-11T05:13:45.839Z,20.00
2022-12-11T05:16:15.966Z,13.97
2022-12-11T05:18:43.885Z,16.60
2022-12-11T05:21:13.948Z,7.47
2022-12-11T05:23:42.400Z,14.73
2022-12-11T05:26:15.879Z,11.97
2022-12-11T05:28:44.083Z,12.87
2022-12-11T05:31:19.882Z,7.82
2022-12-11T05:33:49.094Z,6.13
2022-12-11T05:36:23.019Z,12.93
2022-12-11T05:38:51.537Z,11.70
2022-12-11T05:41:22.455Z,20.05
2022-12-11T05:43:50.312Z,29.97
2022-12-11T05:46:29.861Z,20.60
2022-12-11T05:48:59.705Z,16.53
2022-12-11T05:51:28.220Z,19.67
2022-12-11T05:53:57.786Z,10.25
2022-12-11T05:56:31.483Z,9.93
2022-12-11T05:59:00.597Z,7.43
2022-12-11T06:01:34.746Z,22.43
2022-12-11T06:04:03.625Z,17.60
2022-12-11T06:06:30.974Z,10.95
2022-12-11T06:08:59.203Z,2.83
2022-12-11T06:11:33.018Z,8.02
2022-12-11T06:14:03.870Z,9.10
2022-12-11T06:16:32.312Z,10.03
2022-12-11T06:18:59.987Z,15.23
2022-12-11T06:21:32.610Z,15.40
2022-12-11T06:24:03.321Z,14.33
2022-12-11T06:26:32.336Z,15.03
2022-12-11T06:29:00.139Z,22.50
2022-12-11T06:31:28.141Z,22.60
2022-12-11T06:33:56.102Z,18.90
2022-12-11T06:36:24.549Z,17.70
2022-12-11T06:38:52.520Z,17.47
2022-12-11T06:41:20.000Z,32.77
2022-12-11T06:43:47.685Z,27.33
2022-12-11T06:46:18.282Z,26.37
2022-12-11T06:48:46.480Z,54.90
2022-12-11T06:51:20.686Z,54.03
2022-12-11T06:53:56.454Z,54.40
2022-12-11T06:56:25.040Z,39.57
2022-12-11T06:58:52.549Z,45.72
2022-12-11T07:01:25.416Z,41.40
2022-12-11T07:03:58.490Z,38.90
2022-12-11T07:06:28.545Z,30.87
2022-12-11T07:08:56.956Z,29.97
2022-12-11T07:11:24.328Z,19.90
2022-12-11T07:13:51.703Z,3.90
2022-12-11T07:16:19.693Z,1.70
2022-12-11T07:18:49.402Z,10.10
2022-12-11T07:21:17.245Z,13.33
2022-12-11T07:23:45.070Z,18.13
2022-12-11T07:26:15.294Z,17.07
2022-12-11T07:28:43.229Z,3.30
2022-12-11T07:31:13.701Z,54.47
2022-12-11T07:33:42.490Z,51.50
2022-12-11T07:36:12.339Z,47.35
2022-12-11T07:38:40.717Z,33.77
2022-12-11T07:41:11.235Z,25.53
2022-12-11T07:43:38.954Z,18.20
2022-12-11T07:46:09.738Z,8.43
2022-12-11T07:48:38.328Z,9.77
2022-12-11T07:51:10.719Z,7.62
2022-12-11T07:53:39.224Z,2.20
2022-12-11T07:56:07.510Z,2.70
2022-12-11T07:58:36.215Z,3.65
2022-12-11T08:03:31.691Z,3.93
2022-12-11T08:05:59.063Z,2.43
2022-12-11T08:08:26.478Z,1.60
2022-12-11T08:10:54.399Z,1.90
2022-12-11T08:13:21.781Z,2.60
2022-12-11T08:15:49.206Z,7.80
2022-12-11T08:18:16.866Z,5.23
2022-12-11T08:20:44.223Z,7.17
2022-12-11T08:23:12.144Z,3.27
2022-12-11T08:25:39.843Z,3.17
2022-12-11T08:28:07.349Z,2.43
2022-12-11T08:30:34.856Z,1.20
2022-12-11T08:33:02.591Z,1.30
2022-12-11T08:35:29.880Z,1.13
2022-12-11T08:37:57.169Z,1.43
2022-12-11T08:40:24.976Z,1.37
2022-12-11T08:42:52.538Z,1.97
2022-12-11T08:45:19.884Z,1.67
2022-12-11T08:47:47.565Z,3.63
2022-12-11T08:50:14.844Z,1.87
2022-12-11T08:52:42.287Z,5.70
2022-12-11T08:55:10.457Z,1.90
2022-12-11T08:57:39.904Z,2.00
2022-12-11T09:00:09.691Z,1.30
2022-12-11T09:02:37.403Z,2.00
2022-12-11T09:05:08.242Z,1.80
2022-12-11T09:07:37.022Z,1.70
2022-12-11T09:10:06.425Z,3.65
2022-12-11T09:15:02.548Z,8.30
2022-12-11T09:17:30.924Z,10.05
2022-12-11T09:19:58.228Z,8.90
2022-12-11T09:22:25.539Z,8.07
2022-12-11T09:24:53.264Z,5.80
2022-12-11T09:27:21.526Z,3.90
2022-12-11T09:29:49.418Z,7.17
2022-12-11T09:32:17.449Z,23.73
2022-12-11T09:34:44.932Z,4.50
2022-12-11T09:37:12.257Z,2.20
2022-12-11T09:39:39.877Z,1.70
2022-12-11T09:42:13.235Z,2.07
2022-12-11T09:44:43.795Z,2.33
2022-12-11T09:47:25.361Z,2.90
2022-12-11T09:50:13.021Z,2.87
2022-12-11T09:52:49.606Z,0.93
2022-12-11T09:55:20.550Z,1.67
2022-12-11T09:58:06.549Z,2.77
2022-12-11T10:00:41.385Z,3.33
2022-12-11T10:03:35.434Z,2.40
2022-12-11T10:06:21.461Z,1.80
2022-12-11T10:09:24.557Z,1.80
2022-12-11T10:12:13.918Z,1.20
2022-12-11T10:14:59.835Z,1.10
2022-12-11T10:17:34.157Z,1.67
2022-12-11T10:20:31.331Z,1.30
2022-12-11T10:22:59.561Z,1.30
2022-12-11T10:25:35.711Z,1.60
2022-12-11T10:28:14.974Z,1.40
2022-12-11T10:30:51.712Z,1.07
2022-12-11T10:33:34.841Z,6.13
2022-12-11T10:36:02.556Z,10.40
2022-12-11T10:38:38.500Z,1.70
2022-12-11T10:41:13.993Z,1.80
2022-12-11T10:43:49.862Z,2.20
2022-12-11T10:46:21.494Z,3.57
2022-12-11T10:48:53.590Z,2.90
2022-12-11T10:51:35.070Z,1.10
2022-12-11T10:54:24.462Z,1.20
2022-12-11T10:56:52.271Z,1.60
2022-12-11T10:59:49.434Z,1.50
2022-12-11T11:02:25.695Z,5.23
2022-12-11T11:04:55.360Z,2.60
2022-12-11T11:07:33.336Z,1.80
2022-12-11T11:10:15.683Z,1.10
2022-12-11T11:12:50.638Z,2.87
2022-12-11T11:15:25.910Z,3.00
2022-12-11T11:17:56.308Z,3.20
2022-12-11T11:20:27.924Z,1.40
2022-12-11T11:22:59.982Z,2.33
2022-12-11T11:25:29.978Z,1.00
2022-12-11T11:28:01.353Z,2.77
2022-12-11T11:30:36.912Z,0.80
2022-12-11T11:33:17.885Z,1.63
2022-12-11T11:36:02.548Z,1.70
2022-12-11T11:38:36.380Z,0.90
2022-12-11T11:41:19.205Z,1.53
2022-12-11T11:43:49.180Z,1.47
2022-12-11T11:46:33.638Z,2.87
2022-12-11T11:49:15.116Z,1.60
2022-12-11T11:52:01.316Z,1.17
2022-12-11T11:54:35.840Z,1.20
2022-12-11T11:57:17.890Z,3.43
2022-12-11T11:59:51.031Z,2.07
2022-12-11T12:02:20.185Z,1.50
2022-12-11T12:04:49.582Z,1.60
2022-12-11T12:07:22.909Z,1.25
2022-12-11T12:10:26.860Z,0.97
2022-12-11T12:13:44.345Z,1.30
2022-12-11T12:16:02.238Z,1.23
2022-12-11T12:18:44.376Z,1.10
2022-12-11T12:21:27.963Z,1.20
2022-12-11T12:24:06.905Z,1.10
2022-12-11T12:26:37.579Z,1.13
2022-12-11T12:29:16.997Z,1.77
2022-12-11T12:32:23.662Z,1.77
2022-12-11T12:35:22.200Z,2.50
2022-12-11T12:40:43.847Z,1.20
2022-12-11T12:43:23.766Z,1.60
2022-12-11T12:46:10.532Z,1.47
2022-12-11T12:48:38.841Z,1.20
2022-12-11T12:51:07.173Z,1.43
2022-12-11T12:53:37.093Z,1.55
2022-12-11T12:56:06.413Z,1.67
2022-12-11T12:58:39.898Z,2.00
2022-12-11T13:01:14.697Z,3.30
2022-12-11T13:04:02.441Z,2.83
2022-12-11T13:06:37.859Z,2.57
2022-12-11T13:09:25.310Z,3.20
2022-12-11T13:11:58.197Z,2.90
2022-12-11T13:14:31.257Z,2.60
2022-12-11T13:17:21.614Z,7.37
2022-12-11T13:19:53.143Z,2.20
2022-12-11T13:22:23.560Z,2.23
2022-12-11T13:24:53.856Z,1.60
2022-12-11T13:27:37.368Z,2.33
2022-12-11T13:30:26.506Z,2.10
2022-12-11T13:33:08.008Z,2.00
2022-12-11T13:35:35.913Z,1.77
2022-12-11T13:38:08.172Z,2.17
2022-12-11T13:40:41.114Z,1.83
2022-12-11T13:43:26.305Z,2.50
2022-12-11T13:46:00.812Z,1.60
2022-12-11T13:48:31.450Z,2.17
2022-12-11T13:50:59.851Z,3.17
2022-12-11T13:53:27.219Z,5.50
2022-12-11T13:56:07.065Z,3.63
2022-12-11T13:58:38.724Z,5.10
2022-12-11T14:01:32.751Z,7.20
2022-12-11T14:04:16.221Z,11.77
2022-12-11T14:06:44.156Z,9.90
2022-12-11T14:09:22.140Z,11.52
2022-12-11T14:11:56.438Z,7.47
2022-12-11T14:14:29.196Z,4.03
2022-12-11T14:16:56.756Z,4.67
2022-12-11T14:19:25.163Z,4.00
2022-12-11T14:21:58.696Z,2.83
2022-12-11T14:24:26.188Z,2.10
2022-12-11T14:26:54.615Z,2.73
2022-12-11T14:29:28.178Z,1.83
2022-12-11T14:31:57.675Z,2.97
2022-12-11T14:34:35.719Z,1.80
2022-12-11T14:37:06.544Z,2.00
2022-12-11T14:40:00.105Z,2.60
2022-12-11T14:42:32.836Z,2.47
2022-12-11T14:45:20.311Z,6.63
2022-12-11T14:47:48.600Z,6.97
2022-12-11T14:50:23.617Z,10.07
2022-12-11T14:52:59.217Z,5.63
2022-12-11T14:55:35.405Z,10.57
2022-12-11T14:58:15.461Z,8.47
2022-12-11T15:00:42.800Z,7.27
2022-12-11T15:03:10.422Z,3.00
2022-12-11T15:05:49.950Z,6.40
2022-12-11T15:08:30.509Z,2.17
2022-12-11T15:11:08.231Z,3.30
2022-12-11T15:13:51.430Z,1.62
2022-12-11T15:16:20.265Z,1.70
2022-12-11T15:21:17.930Z,3.08
2022-12-11T15:23:45.177Z,2.43
2022-12-11T15:26:12.932Z,2.63
2022-12-11T15:28:40.365Z,2.23
2022-12-11T15:31:25.695Z,1.83
2022-12-11T15:33:53.870Z,3.70
2022-12-11T15:36:24.202Z,8.47
2022-12-11T15:38:51.565Z,23.00
2022-12-11T15:41:26.620Z,92.37
2022-12-11T15:43:58.903Z,10.87
2022-12-11T15:46:27.463Z,3.70
2022-12-11T15:48:56.493Z,3.87
2022-12-11T15:51:23.824Z,4.07
2022-12-11T15:53:51.501Z,3.87
2022-12-11T15:56:18.872Z,3.93
2022-12-11T15:58:47.772Z,2.40
2022-12-11T16:03:43.151Z,14.67
2022-12-11T16:06:13.769Z,3.43
2022-12-11T16:08:42.426Z,6.83
2022-12-11T16:11:15.429Z,6.20
2022-12-11T16:13:43.206Z,3.10
2022-12-11T16:16:10.939Z,5.77
2022-12-11T16:18:38.249Z,6.13
2022-12-11T16:21:06.713Z,2.30
2022-12-11T16:23:34.406Z,2.65
2022-12-11T16:26:06.876Z,2.60
2022-12-11T16:28:34.425Z,4.67
2022-12-11T16:31:02.101Z,3.57
2022-12-11T16:33:29.516Z,2.80
2022-12-11T16:35:57.979Z,3.63
2022-12-11T16:38:25.593Z,4.73
2022-12-11T16:41:02.563Z,3.40
2022-12-11T16:43:30.291Z,3.77
2022-12-11T16:45:57.745Z,4.30
2022-12-11T16:48:25.157Z,4.40
2022-12-11T16:50:59.227Z,4.97
2022-12-11T16:53:26.499Z,4.40
2022-12-11T16:55:54.143Z,6.07
2022-12-11T16:58:21.571Z,9.23
2022-12-11T17:00:49.785Z,4.70
2022-12-11T17:03:19.260Z,6.82
2022-12-11T17:05:47.762Z,5.62
2022-12-11T17:08:15.287Z,2.87
2022-12-11T17:10:44.413Z,2.90
2022-12-11T17:13:11.822Z,4.77
2022-12-11T17:15:43.738Z,6.73
2022-12-11T17:18:12.095Z,5.70
2022-12-11T17:20:43.836Z,3.07
2022-12-11T17:23:12.614Z,2.47
2022-12-11T17:25:44.870Z,3.28
2022-12-11T17:28:13.775Z,2.47
2022-12-11T17:30:42.858Z,4.03
2022-12-11T17:33:11.196Z,13.32
2022-12-11T17:35:39.194Z,6.82
2022-12-11T17:38:06.567Z,5.97
2022-12-11T17:40:34.012Z,3.63
2022-12-11T17:43:02.140Z,2.50
2022-12-11T17:45:29.480Z,2.10
2022-12-11T17:47:56.875Z,1.77
2022-12-11T17:50:24.511Z,1.90
2022-12-11T17:52:52.165Z,4.33
2022-12-11T17:55:19.603Z,5.90
2022-12-11T17:57:49.194Z,7.35
2022-12-11T18:00:17.044Z,7.93
2022-12-11T18:02:44.764Z,9.67
2022-12-11T18:05:12.522Z,5.60
2022-12-11T18:07:40.273Z,8.90
2022-12-11T18:10:10.994Z,14.83
2022-12-11T18:12:39.434Z,6.07
2022-12-11T18:15:07.814Z,6.97
2022-12-11T18:17:35.614Z,6.73
2022-12-11T18:20:03.796Z,4.67
2022-12-11T18:22:31.306Z,3.55
2022-12-11T18:24:59.005Z,6.93
2022-12-11T18:27:26.496Z,3.33
2022-12-11T18:29:54.859Z,2.67
2022-12-11T18:32:23.895Z,8.05
2022-12-11T18:34:51.302Z,8.93
2022-12-11T18:37:21.179Z,49.73
2022-12-11T18:39:53.584Z,8.37
2022-12-11T18:42:36.164Z,9.67
2022-12-11T18:45:04.478Z,6.03
2022-12-11T18:47:31.820Z,5.63
2022-12-11T18:50:03.953Z,3.87
2022-12-11T18:52:37.090Z,5.90
2022-12-11T18:55:05.013Z,5.80
2022-12-11T18:57:34.737Z,6.00
2022-12-11T19:00:07.633Z,3.60
2022-12-11T19:02:35.758Z,3.57
2022-12-11T19:05:03.086Z,3.23
2022-12-11T19:07:30.877Z,5.17
2022-12-11T19:09:58.428Z,2.93
2022-12-11T19:12:26.387Z,3.83
2022-12-11T19:14:54.743Z,3.73
2022-12-11T19:17:22.617Z,2.37
2022-12-11T19:19:52.691Z,2.60
2022-12-11T19:22:20.751Z,2.77
2022-12-11T19:24:48.026Z,2.73
2022-12-11T19:27:15.244Z,3.33
2022-12-11T19:29:42.938Z,3.20
2022-12-11T19:32:10.341Z,4.30
2022-12-11T19:34:38.731Z,2.30
2022-12-11T19:37:06.579Z,3.78
2022-12-11T19:39:34.113Z,2.80
2022-12-11T19:42:01.635Z,2.60
2022-12-11T19:44:29.383Z,2.50
2022-12-11T19:46:56.868Z,3.10
2022-12-11T19:49:24.401Z,2.40
2022-12-11T19:51:52.090Z,3.57
2022-12-11T19:54:19.522Z,3.70
2022-12-11T19:56:46.918Z,4.53
2022-12-11T19:59:17.862Z,3.03
2022-12-11T20:01:48.168Z,3.40
2022-12-11T20:04:16.950Z,2.60
2022-12-11T20:06:46.357Z,3.53
2022-12-11T20:11:48.449Z,4.55
2022-12-11T20:14:23.139Z,3.20
2022-12-11T20:22:08.038Z,4.77
2022-12-11T20:24:36.337Z,4.87
2022-12-11T20:27:04.056Z,7.50
2022-12-11T20:29:32.260Z,4.23
2022-12-11T20:32:00.584Z,3.70
2022-12-11T20:34:28.392Z,4.43
2022-12-11T20:36:56.513Z,3.53
2022-12-11T20:39:24.875Z,2.67
2022-12-11T20:41:52.195Z,2.40
2022-12-11T20:44:20.477Z,3.30
2022-12-11T20:46:47.845Z,5.30
2022-12-11T20:49:15.183Z,6.67
2022-12-11T20:51:42.995Z,5.60
2022-12-11T20:54:10.333Z,4.70
2022-12-11T20:56:38.184Z,3.53
2022-12-11T20:59:06.071Z,3.60
2022-12-11T21:01:35.022Z,3.60
2022-12-11T21:04:02.763Z,4.57
2022-12-11T21:06:33.557Z,6.20
2022-12-11T21:09:06.503Z,5.17
2022-12-11T21:11:34.631Z,3.50
2022-12-11T21:14:02.026Z,4.00
2022-12-11T21:16:29.633Z,3.33
2022-12-11T21:18:58.948Z,3.83
2022-12-11T21:21:26.693Z,3.90
2022-12-11T21:23:54.105Z,2.70
2022-12-11T21:26:21.961Z,3.50
2022-12-11T21:28:49.388Z,4.63
2022-12-11T21:31:18.694Z,4.80
2022-12-11T21:33:47.103Z,5.43
2022-12-11T21:36:15.895Z,6.13
2022-12-11T21:38:44.595Z,5.75
2022-12-11T21:41:16.704Z,5.78
2022-12-11T21:44:40.834Z,5.57
2022-12-11T21:46:35.288Z,7.43
2022-12-11T21:49:02.765Z,5.00
2022-12-11T21:51:37.776Z,7.83
2022-12-11T21:54:10.481Z,4.20
2022-12-11T21:56:37.810Z,8.70
2022-12-11T21:59:05.465Z,10.20
2022-12-11T22:01:41.147Z,3.97
2022-12-11T22:04:10.940Z,3.20
2022-12-11T22:09:06.004Z,3.40
2022-12-11T22:11:36.485Z,3.73
2022-12-11T22:14:04.982Z,4.43
2022-12-11T22:16:33.254Z,3.43
2022-12-11T22:19:01.155Z,6.37
2022-12-11T22:21:29.033Z,4.50
2022-12-11T22:23:56.556Z,8.47
2022-12-11T22:26:26.958Z,9.10
2022-12-11T22:28:55.497Z,4.30
2022-12-11T22:31:25.137Z,8.13
2022-12-11T22:33:55.083Z,7.70
2022-12-11T22:38:50.390Z,4.67
2022-12-11T22:41:26.416Z,3.20
2022-12-11T22:43:54.808Z,4.03
2022-12-11T22:46:24.501Z,3.35
2022-12-11T22:48:52.632Z,3.90
2022-12-11T22:51:20.810Z,3.37
2022-12-11T22:53:48.595Z,3.58
2022-12-11T22:56:16.541Z,3.37
2022-12-11T22:58:43.890Z,3.20
2022-12-11T23:01:15.279Z,3.60
2022-12-11T23:03:42.772Z,2.87
2022-12-11T23:06:12.779Z,3.23
2022-12-11T23:08:41.482Z,2.97
2022-12-11T23:11:15.596Z,3.10
2022-12-11T23:13:44.575Z,3.50
2022-12-11T23:16:12.842Z,3.77
2022-12-11T23:18:40.654Z,3.53
2022-12-11T23:21:09.175Z,3.43
2022-12-11T23:23:36.569Z,3.80
2022-12-11T23:26:05.319Z,4.27
2022-12-11T23:28:33.023Z,3.62
2022-12-11T23:31:00.688Z,3.53
2022-12-11T23:33:28.089Z,3.93
2022-12-11T23:35:55.830Z,2.90
2022-12-11T23:38:23.409Z,4.37
2022-12-11T23:40:52.205Z,4.13
2022-12-11T23:43:20.054Z,3.90
2022-12-11T23:45:47.427Z,4.33
2022-12-11T23:48:15.025Z,3.83
2022-12-11T23:50:44.076Z,3.87
2022-12-11T23:53:12.017Z,3.78
2022-12-11T23:55:41.659Z,4.00
2022-12-11T23:58:10.916Z,3.70
